Ravalli County (6S5)
Hamilton, MT
Field Elevation: 3642
Lat: 45°15.05N  Long: 114°07.31W
CTAF/Unicom Freq: 122.8000
   
     For Weather-by-Phone, call 406-375-9149
Weather Advisories
2018-02-25   21:01 Z
Altimeter 29.73" Hg
Wind 140° @ 18 KT
Gusts 21 KT
Visibility 10 SM
Temperature 1° C (34° F)
Dewpoint -6° C (21° F)
Relative Humidity 61%
Density Altitude --
Condensation Altitude 7,000 feet
Wind Chill: -5° C (23° F)
Wind and Runways
Indicated Runway = 16
Headwind = 17 kt
Crosswind = 6 kt
History
 
 
 
More Info
NOAA Forecast
 
 
About Us
Belfort Instrument
 
 
FAA Disclaimer: The data displayed is for advisory purposes only and is not to be used for flight planning or operations. For official data, please call 406-375-9149 to hear the current automated AWOS voice message.
  METAR 6S5 252101Z AUTO 14018G21KT 10 SM 01/M06 A2973